Asia, Texas
Current Conditions -  °F | °C
As of 1:53 AM on Friday 19 Dec 2014 (Local Time) from KLFK Reporting Station
Light Rain Light Rain  
Wind Chill: 54°   Ceiling: 800
Heat Index: 54°   Visibility: 7mi
Dew Point: 49°   Wind: 8mph
Humidity: 83%   Direction: 70°ENE
Pressure: 30.07"   Gusts: NA
Location:  31.024°N, 94.7686°W
Report Text: KLFK 190753Z AUTO 07007KT 7SM -RA OVC008 12/09 A3007 RMK AO2 RAE03B42 SLP180 P0000 T01220094
Loading
Personal Weather Stations






























Interactive Weather Map New forecast layout! Learn more

10-Day Weather Forecast

Advertisements
Track Severe Weather on mobile